Time;durP1;ratioP1;P1;durP2;ratioP2;P2;SDS_P1;SDS_P2;PMS_P1;PMS_P2;Temp;Humidity;BMP_temperature;BMP_pressure;BME280_temperature;BME280_humidity;BME280_pressure;Samples;Min_cycle;Max_cycle;Signal;HPM_P1;HPM_P2
2022/11/04 00:01:42;;;;;;;11.83;5.80;;;;;;;13.90;45.89;101962.64;1739179;80;21030;-51
2022/11/04 00:04:10;;;;;;;11.57;5.75;;;;;;;13.87;45.72;101957.45;1718217;82;21056;-51
2022/11/04 00:06:37;;;;;;;8.55;6.10;;;;;;;13.84;45.43;101956.20;1667683;82;21728;-50
2022/11/04 00:09:06;;;;;;;9.68;6.12;;;;;;;13.80;45.21;101958.45;1707984;82;21111;-50
2022/11/04 00:14:19;;;;;;;7.72;5.87;;;;;;;13.73;45.33;101957.68;1706994;82;21156;-50
2022/11/04 00:28:41;;;;;;;8.88;6.65;;;;;;;13.64;45.57;101955.20;1694630;81;21091;-50
2022/11/04 00:30:16;;;;;;;11.22;6.03;;;;;;;13.54;45.78;101955.38;1707344;82;21054;-50
2022/11/04 00:35:28;;;;;;;10.53;5.87;;;;;;;13.52;45.98;101946.66;1639115;85;21577;-51
2022/11/04 00:37:54;;;;;;;9.18;5.92;;;;;;;13.51;46.26;101951.48;1705403;81;21047;-51
2022/11/04 00:40:21;;;;;;;10.63;6.58;;;;;;;13.51;46.58;101952.80;1716786;82;21090;-50
2022/11/04 00:42:49;;;;;;;10.40;6.85;;;;;;;13.51;46.91;101947.56;1711178;82;21214;-50
2022/11/04 00:45:16;;;;;;;11.10;6.50;;;;;;;13.49;47.12;101946.73;1718290;81;21026;-49
2022/11/04 00:47:42;;;;;;;13.45;6.78;;;;;;;13.49;47.31;101948.91;1694327;83;21046;-52
2022/11/04 00:50:09;;;;;;;10.13;6.53;;;;;;;13.48;47.47;101942.37;1692229;83;21010;-50
2022/11/04 00:52:36;;;;;;;9.25;5.85;;;;;;;13.26;48.13;101946.19;1695465;83;21103;-51
2022/11/04 00:55:05;;;;;;;9.33;6.60;;;;;;;13.45;47.88;101943.30;1689975;83;21593;-50
2022/11/04 00:57:32;;;;;;;9.73;5.87;;;;;;;13.49;48.02;101941.50;1687218;83;21029;-50
2022/11/04 00:59:59;;;;;;;12.80;6.83;;;;;;;13.52;48.10;101938.82;1684984;82;21039;-51
2022/11/04 01:02:26;;;;;;;13.40;6.37;;;;;;;13.54;48.11;101939.23;1764930;80;21065;-50
2022/11/04 01:04:52;;;;;;;13.50;7.33;;;;;;;13.57;47.96;101942.25;1757431;80;21531;-50
2022/11/04 01:07:19;;;;;;;9.98;6.08;;;;;;;13.57;47.91;101935.27;1749876;80;21009;-50
2022/11/04 01:09:46;;;;;;;9.55;6.10;;;;;;;13.59;47.76;101937.86;1753862;81;21007;-50
2022/11/04 01:12:12;;;;;;;11.80;6.60;;;;;;;13.57;47.70;101937.89;1748387;80;21518;-50
2022/11/04 01:14:39;;;;;;;9.13;6.50;;;;;;;13.55;47.85;101928.33;1737534;81;21128;-50
2022/11/04 01:17:07;;;;;;;10.82;6.10;;;;;;;13.52;47.91;101925.75;1760419;81;21061;-50
2022/11/04 01:19:35;;;;;;;6.65;5.58;;;;;;;13.51;47.92;101934.49;1749571;80;21047;-50
2022/11/04 01:22:01;;;;;;;10.18;6.42;;;;;;;13.50;47.94;101924.91;1755243;80;21093;-51
2022/11/04 01:24:28;;;;;;;9.83;8.53;;;;;;;13.50;47.98;101920.98;1751376;80;21026;-50
2022/11/04 01:26:55;;;;;;;14.28;8.25;;;;;;;13.26;48.61;101920.92;1754970;80;21006;-51
2022/11/04 01:29:22;;;;;;;12.70;7.97;;;;;;;13.23;48.76;101921.41;1758910;80;21490;-50
2022/11/04 01:31:49;;;;;;;11.50;6.72;;;;;;;13.23;48.78;101914.87;1752165;80;21017;-51
2022/11/04 01:34:15;;;;;;;11.20;7.08;;;;;;;13.45;48.27;101911.05;1754152;80;21121;-50
2022/11/04 01:36:42;;;;;;;9.85;6.65;;;;;;;13.24;48.60;101906.14;1749005;80;21057;-51
2022/11/04 01:39:11;;;;;;;9.83;6.10;;;;;;;13.44;47.90;101909.31;1747368;80;21101;-50
2022/11/04 01:41:38;;;;;;;9.13;6.40;;;;;;;13.44;47.51;101904.08;1758429;80;21065;-51
2022/11/04 01:44:45;;;;;;;10.95;7.25;;;;;;;13.42;47.31;101903.24;1753969;80;21030;-50
2022/11/04 01:47:25;;;;;;;10.63;6.78;;;;;;;13.38;47.24;101904.17;1759606;80;21038;-50
2022/11/04 01:50:21;;;;;;;12.55;6.55;;;;;;;13.32;47.27;101906.45;1765953;80;20991;-51
2022/11/04 01:53:14;;;;;;;12.43;7.35;;;;;;;13.29;47.37;101906.95;1767016;80;21054;-51
2022/11/04 01:55:55;;;;;;;10.63;6.10;;;;;;;13.24;47.52;101907.01;1752788;80;21563;-50
2022/11/04 01:58:25;;;;;;;8.65;6.40;;;;;;;13.22;47.72;101910.52;1762233;80;21006;-50
2022/11/04 02:00:51;;;;;;;10.50;6.33;;;;;;;13.22;47.89;101907.91;1760886;80;21011;-49
2022/11/04 02:03:22;;;;;;;10.48;6.67;;;;;;;13.21;47.76;101908.81;1754546;81;21026;-50
2022/11/04 02:05:48;;;;;;;9.93;6.67;;;;;;;13.21;47.58;101906.20;1759525;80;21050;-50
2022/11/04 02:08:15;;;;;;;11.10;6.67;;;;;;;13.20;47.46;101901.84;1760932;80;21014;-50
2022/11/04 02:10:49;;;;;;;10.60;6.60;;;;;;;13.19;47.28;101901.44;1766242;80;21037;-49
2022/11/04 02:13:17;;;;;;;14.43;6.80;;;;;;;13.16;47.22;101898.85;1746974;80;21108;-50
2022/11/04 02:16:01;;;;;;;10.72;6.60;;;;;;;13.14;47.25;101894.09;1759268;80;21057;-51
2022/11/04 02:18:36;;;;;;;12.55;6.95;;;;;;;13.10;47.34;101889.80;1712595;82;21046;-50
2022/11/04 02:21:44;;;;;;;8.85;6.12;;;;;;;13.06;47.48;101896.35;1718995;83;21031;-50
2022/11/04 02:24:22;;;;;;;10.70;7.15;;;;;;;13.03;47.63;101896.38;1717465;82;21030;-50
2022/11/04 02:27:27;;;;;;;8.98;6.75;;;;;;;13.00;47.74;101894.26;1764384;80;21035;-50
2022/11/04 02:30:15;;;;;;;8.90;7.08;;;;;;;12.96;47.72;101888.19;1764792;80;21030;-50
2022/11/04 02:32:50;;;;;;;12.13;7.47;;;;;;;12.94;47.59;101892.57;1763896;80;21059;-51
2022/11/04 02:35:43;;;;;;;12.07;6.85;;;;;;;12.91;47.32;101891.76;1760415;80;21146;-51
2022/11/04 02:38:40;;;;;;;13.65;7.25;;;;;;;12.89;47.10;101894.40;1746481;80;21018;-51
2022/11/04 02:41:39;;;;;;;11.63;6.12;;;;;;;12.85;46.88;101891.84;1756920;80;21018;-51
2022/11/04 02:44:20;;;;;;;11.63;6.67;;;;;;;12.80;46.87;101892.33;1756676;80;21072;-49
2022/11/04 02:47:07;;;;;;;11.78;6.37;;;;;;;12.74;46.85;101893.28;1751687;80;21058;-52
2022/11/04 02:49:42;;;;;;;14.20;7.12;;;;;;;12.68;46.84;101893.36;1751402;80;21026;-51
2022/11/04 02:52:11;;;;;;;11.50;7.60;;;;;;;12.61;47.55;101892.99;1761344;80;21062;-51
2022/11/04 02:54:49;;;;;;;14.33;8.75;;;;;;;12.52;48.26;101897.04;1756201;80;20999;-50
2022/11/04 02:57:23;;;;;;;14.70;8.13;;;;;;;12.45;49.09;101899.28;1741566;80;21046;-51
2022/11/04 03:00:10;;;;;;;13.43;7.50;;;;;;;12.43;49.98;101898.44;1746152;80;21030;-50
2022/11/04 03:02:44;;;;;;;12.45;7.90;;;;;;;12.43;50.32;101894.52;1719496;80;21107;-51
2022/11/04 03:05:30;;;;;;;13.28;7.60;;;;;;;12.44;50.43;101887.13;1750567;81;21094;-50
2022/11/04 03:08:03;;;;;;;9.80;6.97;;;;;;;12.48;50.43;101894.04;1687536;83;21505;-51
2022/11/04 03:10:36;;;;;;;14.13;7.83;;;;;;;12.53;50.33;101889.61;1700829;84;21046;-51
2022/11/04 03:13:18;;;;;;;11.93;7.62;;;;;;;12.58;50.27;101895.66;1682624;84;21022;-51
2022/11/04 03:15:52;;;;;;;11.27;7.50;;;;;;;12.63;50.36;101896.45;1695576;83;21124;-51
2022/11/04 03:18:58;;;;;;;12.75;8.20;;;;;;;12.67;50.55;101894.26;1596978;88;21769;-50
2022/11/04 03:21:24;;;;;;;12.37;8.58;;;;;;;12.72;50.74;101893.73;1608348;88;21562;-50
2022/11/04 03:23:52;;;;;;;14.55;8.88;;;;;;;12.76;50.90;101891.95;1605209;88;22784;-51
2022/11/04 03:26:33;;;;;;;15.30;9.18;;;;;;;12.79;51.10;101893.23;1594215;88;21077;-51
2022/11/04 03:29:28;;;;;;;11.12;7.97;;;;;;;12.82;51.81;101888.81;1562508;91;21122;-51
2022/11/04 03:32:17;;;;;;;15.20;9.55;;;;;;;12.82;51.81;101888.81;1564078;91;21130;-50
2022/11/04 03:34:44;;;;;;;14.25;8.73;;;;;;;12.86;51.66;101889.20;1536186;92;21080;-51
2022/11/04 03:37:10;;;;;;;12.28;8.48;;;;;;;12.89;51.73;101892.22;1539133;92;21832;-50
2022/11/04 03:39:38;;;;;;;15.08;9.23;;;;;;;12.91;51.71;101889.14;1540077;92;21697;-51
2022/11/04 03:42:18;;;;;;;12.10;8.30;;;;;;;12.94;51.69;101886.51;1539191;92;21561;-50
2022/11/04 03:44:37;;;;;;;;;;;;;;;12.97;51.66;101893.85;1543421;92;21107;-50
2022/11/04 03:47:04;;;;;;;15.15;9.08;;;;;;;13.01;51.32;101889.00;1538991;92;20192;-51
2022/11/04 03:49:32;;;;;;;16.17;8.10;;;;;;;13.02;50.98;101890.72;1540667;92;21156;-50
2022/11/04 03:51:59;;;;;;;14.85;8.65;;;;;;;13.04;50.66;101893.36;1539638;92;21555;-51
2022/11/04 03:54:25;;;;;;;13.78;9.18;;;;;;;13.03;50.54;101896.81;1539879;92;21128;-50
2022/11/04 03:56:58;;;;;;;11.80;9.18;;;;;;;13.02;50.41;101895.94;1540006;92;21185;-51
2022/11/04 03:59:53;;;;;;;13.88;9.50;;;;;;;13.01;50.46;101899.45;1526842;92;21169;-51
2022/11/04 04:03:01;;;;;;;19.10;10.10;;;;;;;12.99;50.75;101908.19;1539997;92;21090;-51
2022/11/04 04:05:40;;;;;;;12.43;9.15;;;;;;;12.96;51.15;101903.86;1561231;89;21140;-51
2022/11/04 04:08:15;;;;;;;13.80;9.68;;;;;;;12.94;51.58;101904.33;1602293;88;21095;-51
2022/11/04 04:11:14;;;;;;;13.40;9.25;;;;;;;12.93;51.75;101900.00;1595071;89;21059;-50
2022/11/04 04:13:57;;;;;;;13.75;9.85;;;;;;;12.93;52.04;101897.39;1682810;84;21054;-51
2022/11/04 04:16:38;;;;;;;13.93;9.65;;;;;;;12.90;52.43;101898.72;1742544;80;21057;-51
2022/11/04 04:19:18;;;;;;;15.93;9.33;;;;;;;12.85;52.71;101898.37;1717582;81;21105;-51
2022/11/04 04:21:51;;;;;;;16.60;9.58;;;;;;;12.78;53.07;101899.31;1699896;82;21123;-51
2022/11/04 04:29:50;;;;;;;16.15;10.93;;;;;;;12.76;53.53;101912.41;1619636;87;21045;-51
2022/11/04 04:32:17;;;;;;;15.72;10.93;;;;;;;12.83;53.37;101917.98;1619914;87;21108;-50
2022/11/04 04:34:44;;;;;;;19.50;12.45;;;;;;;12.91;53.33;101919.19;1602081;87;21015;-50
2022/11/04 04:37:23;;;;;;;16.40;11.50;;;;;;;12.96;53.24;101918.23;1606598;87;21050;-50
2022/11/04 04:45:36;;;;;;;20.10;11.08;;;;;;;13.07;52.43;101910.29;1599862;87;21554;-51
2022/11/04 04:48:03;;;;;;;18.60;11.08;;;;;;;13.06;52.17;101900.27;1598467;87;21090;-50
2022/11/04 04:50:42;;;;;;;15.55;10.65;;;;;;;13.04;52.14;101905.96;1595196;87;21599;-50
2022/11/04 04:53:09;;;;;;;17.80;10.88;;;;;;;13.03;51.91;101913.80;1598146;87;21162;-51
2022/11/04 04:55:37;;;;;;;17.75;11.45;;;;;;;13.03;51.74;101915.98;1586402;87;21074;-50
2022/11/04 04:58:03;;;;;;;16.62;10.72;;;;;;;13.02;51.87;101920.77;1593244;88;22580;-50
2022/11/04 05:00:32;;;;;;;17.27;11.30;;;;;;;12.98;52.19;101915.16;1595984;87;21523;-51
2022/11/04 05:02:59;;;;;;;17.95;11.48;;;;;;;12.92;52.60;101913.94;1614652;87;21002;-50
2022/11/04 05:05:25;;;;;;;15.58;11.03;;;;;;;12.86;53.12;101917.93;1617829;87;21078;-50
2022/11/04 05:07:52;;;;;;;16.97;10.72;;;;;;;12.80;53.61;101920.63;1593217;86;21562;-51
2022/11/04 05:10:18;;;;;;;20.32;12.07;;;;;;;12.75;54.06;101919.84;1594153;86;21034;-51
2022/11/04 05:15:31;;;;;;;20.55;10.85;;;;;;;12.74;54.64;101925.05;1583142;88;21122;-51
2022/11/04 05:18:01;;;;;;;17.70;12.05;;;;;;;12.72;54.86;101925.08;1604137;89;21126;-50
2022/11/04 05:20:29;;;;;;;20.70;12.07;;;;;;;12.70;55.05;101922.92;1610015;87;21126;-50
2022/11/04 05:22:57;;;;;;;17.07;12.73;;;;;;;12.71;55.24;101918.58;1652430;86;22684;-50
2022/11/04 05:25:23;;;;;;;18.00;11.63;;;;;;;12.72;55.36;101926.39;1636676;86;21055;-50
2022/11/04 05:27:50;;;;;;;16.77;11.53;;;;;;;12.74;55.47;101923.31;1595912;88;21237;-51
2022/11/04 05:30:17;;;;;;;17.73;12.13;;;;;;;12.79;55.49;101937.20;1640887;83;21098;-50
2022/11/04 05:32:44;;;;;;;20.52;12.78;;;;;;;12.89;55.10;101934.02;1685727;83;21577;-50
2022/11/04 05:35:11;;;;;;;15.65;11.35;;;;;;;13.05;54.67;101942.98;1695281;83;21073;-50
2022/11/04 05:37:37;;;;;;;17.45;11.60;;;;;;;13.22;54.07;101948.42;1767620;80;21031;-50
2022/11/04 05:40:06;;;;;;;17.35;10.90;;;;;;;13.36;53.41;101947.78;1745797;81;21037;-51
2022/11/04 05:42:33;;;;;;;18.05;11.45;;;;;;;13.46;52.92;101937.61;1756906;80;21058;-50
2022/11/04 05:45:00;;;;;;;18.67;11.78;;;;;;;13.52;52.40;101936.20;1736428;80;21093;-50
2022/11/04 05:47:27;;;;;;;18.48;11.35;;;;;;;13.53;52.17;101939.26;1756515;80;21126;-50
2022/11/04 05:49:54;;;;;;;16.25;11.18;;;;;;;13.47;52.15;101947.20;1767677;80;21128;-50
2022/11/04 05:52:21;;;;;;;17.25;11.85;;;;;;;13.40;52.24;101948.16;1758496;80;21027;-51
2022/11/04 05:54:48;;;;;;;18.10;12.98;;;;;;;13.33;52.34;101942.61;1748631;81;21045;-50
2022/11/04 05:57:15;;;;;;;17.42;12.95;;;;;;;13.26;52.45;101951.41;1752270;80;21027;-50
2022/11/04 05:59:43;;;;;;;22.17;14.28;;;;;;;13.20;52.65;101955.42;1757579;80;21058;-51
2022/11/04 06:02:09;;;;;;;19.85;12.55;;;;;;;13.17;52.83;101956.78;1762287;80;21050;-50
2022/11/04 06:04:36;;;;;;;16.45;12.70;;;;;;;13.13;52.97;101957.71;1755032;80;21065;-50
2022/11/04 06:07:03;;;;;;;23.45;13.00;;;;;;;13.11;53.13;101962.93;1773411;80;21006;-51
2022/11/04 06:09:38;;;;;;;17.45;12.25;;;;;;;13.11;53.30;101964.70;1752808;80;21028;-50
2022/11/04 06:12:10;;;;;;;16.45;11.33;;;;;;;13.11;53.39;101964.70;1761276;80;21031;-52
2022/11/04 06:14:37;;;;;;;15.20;11.45;;;;;;;13.12;53.43;101972.52;1755781;80;20995;-51
2022/11/04 06:17:04;;;;;;;17.48;11.50;;;;;;;13.14;53.43;101975.10;1760726;80;21054;-52
2022/11/04 06:19:31;;;;;;;18.17;12.00;;;;;;;13.17;53.46;101980.30;1767451;80;21054;-51
2022/11/04 06:21:59;;;;;;;18.75;12.00;;;;;;;13.22;53.45;101986.31;1759331;80;21518;-51
2022/11/04 06:24:25;;;;;;;16.23;11.18;;;;;;;13.29;53.56;101985.37;1753384;80;21056;-51
2022/11/04 06:26:52;;;;;;;19.48;12.70;;;;;;;13.35;53.59;101983.54;1765405;80;21926;-51
2022/11/04 06:29:19;;;;;;;18.75;12.20;;;;;;;13.52;53.50;101981.97;1753019;80;21044;-51
2022/11/04 06:31:46;;;;;;;18.25;13.03;;;;;;;13.63;53.38;101984.00;1751271;80;21041;-51
2022/11/04 06:34:12;;;;;;;18.15;12.45;;;;;;;13.69;53.40;101983.47;1751929;80;21100;-51
2022/11/04 06:36:40;;;;;;;21.95;12.65;;;;;;;13.74;53.53;101974.25;1764454;80;21081;-50
2022/11/04 06:39:07;;;;;;;20.37;13.25;;;;;;;13.78;53.74;101982.03;1759028;80;21038;-51
2022/11/04 06:41:33;;;;;;;16.37;12.58;;;;;;;13.83;53.88;101980.19;1762785;80;20990;-50
2022/11/04 06:44:00;;;;;;;15.88;11.40;;;;;;;13.90;53.97;101980.97;1752937;80;20991;-50
2022/11/04 06:46:37;;;;;;;17.87;11.00;;;;;;;13.97;54.00;101981.30;1762025;80;21053;-50
2022/11/04 06:49:06;;;;;;;17.77;11.57;;;;;;;14.05;54.12;101979.41;1755537;80;21084;-50
2022/11/04 06:51:33;;;;;;;16.05;11.48;;;;;;;14.10;54.27;101977.56;1761227;80;21046;-51
2022/11/04 06:54:00;;;;;;;18.92;11.33;;;;;;;14.18;54.42;101977.46;1768719;80;21325;-52
2022/11/04 06:56:27;;;;;;;16.07;10.78;;;;;;;14.26;54.40;101980.80;1753660;80;21033;-50
2022/11/04 06:58:54;;;;;;;16.82;11.12;;;;;;;14.34;54.51;101977.64;1754284;80;21096;-50
2022/11/04 07:01:23;;;;;;;13.90;10.58;;;;;;;14.43;54.38;101970.47;1770923;80;21035;-50
2022/11/04 07:03:51;;;;;;;15.63;10.25;;;;;;;14.51;54.14;101977.73;1763036;80;21062;-51
2022/11/04 07:06:18;;;;;;;15.35;10.72;;;;;;;14.59;54.10;101973.22;1757387;80;21117;-50
2022/11/04 07:08:46;;;;;;;15.75;10.43;;;;;;;14.68;54.00;101974.36;1748957;81;20999;-51
2022/11/04 07:11:15;;;;;;;13.05;10.60;;;;;;;14.80;53.80;101965.39;1757416;80;21015;-51
2022/11/04 07:13:43;;;;;;;15.98;11.22;;;;;;;14.88;53.64;101962.63;1756509;80;21035;-51
2022/11/04 07:16:11;;;;;;;16.15;10.25;;;;;;;14.94;53.62;101960.72;1748884;81;21047;-50
2022/11/04 07:18:38;;;;;;;18.07;11.15;;;;;;;15.01;53.44;101962.78;1756853;80;21102;-52
2022/11/04 07:21:05;;;;;;;13.08;9.50;;;;;;;15.07;53.18;101963.95;1755631;80;21013;-50
2022/11/04 07:23:33;;;;;;;12.93;9.83;;;;;;;15.14;52.92;101964.26;1747293;80;21549;-51
2022/11/04 07:26:01;;;;;;;12.93;9.50;;;;;;;15.20;52.75;101961.06;1773322;80;21072;-51
2022/11/04 07:28:28;;;;;;;12.98;9.68;;;;;;;15.26;52.60;101967.92;1749562;80;21149;-51
2022/11/04 07:30:57;;;;;;;14.10;9.70;;;;;;;15.30;52.64;101965.64;1750549;80;21522;-51
2022/11/04 07:33:24;;;;;;;12.20;9.28;;;;;;;15.36;52.53;101969.44;1754034;80;21045;-51
2022/11/04 07:35:52;;;;;;;10.93;8.93;;;;;;;15.40;52.42;101956.23;1764874;80;21058;-51
2022/11/04 07:38:20;;;;;;;10.90;8.38;;;;;;;15.45;52.37;101952.23;1768576;80;21025;-52
2022/11/04 07:40:46;;;;;;;14.13;9.13;;;;;;;15.49;52.29;101949.95;1748981;81;21058;-51
2022/11/04 07:43:14;;;;;;;12.95;9.05;;;;;;;15.53;52.20;101943.73;1747994;80;21093;-51
2022/11/04 07:45:40;;;;;;;10.58;8.58;;;;;;;15.59;52.12;101942.28;1766998;80;20998;-51
2022/11/04 07:48:07;;;;;;;11.70;8.43;;;;;;;15.65;52.03;101943.44;1755174;80;21086;-51
2022/11/04 07:50:33;;;;;;;13.55;9.23;;;;;;;15.57;52.25;101940.14;1763307;80;21497;-52
2022/11/04 07:53:00;;;;;;;14.58;9.03;;;;;;;15.53;52.31;101942.86;1746698;80;21018;-50
2022/11/04 07:55:27;;;;;;;12.55;9.35;;;;;;;15.52;52.36;101938.53;1755135;80;21035;-51
2022/11/04 07:57:54;;;;;;;11.57;8.73;;;;;;;15.50;52.50;101942.48;1749597;80;21529;-51
2022/11/04 08:00:21;;;;;;;14.10;9.03;;;;;;;15.50;52.50;101933.30;1759621;81;20999;-51
2022/11/04 08:02:48;;;;;;;12.10;8.38;;;;;;;15.53;52.45;101941.55;1749925;81;21494;-51
2022/11/04 08:05:15;;;;;;;13.50;9.10;;;;;;;15.56;52.51;101933.15;1752375;80;21073;-50
2022/11/04 08:07:42;;;;;;;13.13;8.33;;;;;;;15.63;52.42;101939.99;1761845;80;21011;-51
2022/11/04 08:10:09;;;;;;;12.03;8.53;;;;;;;15.72;52.30;101946.79;1765521;80;21087;-51
2022/11/04 08:12:37;;;;;;;11.48;8.10;;;;;;;15.79;51.92;101943.97;1750343;80;21085;-51
2022/11/04 08:15:06;;;;;;;9.33;7.83;;;;;;;15.85;51.81;101941.19;1754926;80;21035;-51
2022/11/04 08:17:34;;;;;;;11.05;8.23;;;;;;;15.94;51.58;101933.55;1760978;80;21066;-51
2022/11/04 08:20:01;;;;;;;14.55;8.70;;;;;;;16.07;51.29;101937.12;1755572;80;21550;-51
2022/11/04 08:22:28;;;;;;;11.97;8.88;;;;;;;16.08;51.27;101934.92;1758526;81;21041;-51
2022/11/04 08:24:54;;;;;;;12.85;8.90;;;;;;;16.15;51.20;101936.95;1751736;80;21030;-50
2022/11/04 08:27:22;;;;;;;12.43;9.20;;;;;;;16.22;51.04;101927.98;1753353;80;21062;-51
2022/11/04 08:29:49;;;;;;;11.57;8.25;;;;;;;16.31;50.88;101929.06;1748253;80;21081;-51
2022/11/04 08:32:17;;;;;;;10.43;8.50;;;;;;;16.44;50.60;101924.34;1768181;80;21022;-51
2022/11/04 08:34:45;;;;;;;10.90;8.30;;;;;;;16.52;50.57;101918.46;1765163;80;21015;-50
2022/11/04 08:37:15;;;;;;;10.98;8.20;;;;;;;16.61;50.43;101919.53;1755988;80;21092;-51
2022/11/04 08:39:44;;;;;;;12.13;7.70;;;;;;;16.69;50.32;101915.75;1759339;80;21008;-50
2022/11/04 08:42:10;;;;;;;9.93;7.12;;;;;;;16.78;50.21;101915.95;1757633;80;21523;-51
2022/11/04 08:44:38;;;;;;;11.95;7.15;;;;;;;16.85;49.75;101913.12;1755518;80;21117;-51
2022/11/04 08:47:05;;;;;;;10.10;6.80;;;;;;;16.89;49.32;101906.86;1769187;80;21495;-51
2022/11/04 08:49:38;;;;;;;10.55;6.60;;;;;;;16.95;49.13;101911.06;1745894;80;20993;-51
2022/11/04 08:52:05;;;;;;;11.93;8.18;;;;;;;17.00;48.70;101903.92;1754979;80;21006;-51
2022/11/04 08:54:32;;;;;;;7.55;6.37;;;;;;;17.05;48.65;101902.86;1760845;80;21491;-51
2022/11/04 08:56:58;;;;;;;9.05;6.95;;;;;;;17.11;48.65;101901.80;1756471;80;21007;-51
2022/11/04 08:59:26;;;;;;;7.08;5.83;;;;;;;17.17;48.63;101900.75;1764610;80;21684;-50
2022/11/04 09:01:52;;;;;;;9.48;5.72;;;;;;;17.21;48.56;101903.24;1760943;80;21572;-50
2022/11/04 09:04:19;;;;;;;10.10;5.95;;;;;;;17.26;48.49;101898.72;1764777;80;21037;-51
2022/11/04 09:06:46;;;;;;;9.70;6.50;;;;;;;17.31;48.16;101895.95;1759898;80;21029;-51
2022/11/04 09:09:15;;;;;;;8.23;5.70;;;;;;;17.37;47.97;101900.53;1754776;80;21507;-51
2022/11/04 09:11:42;;;;;;;7.08;5.33;;;;;;;17.44;47.93;101897.26;1759048;81;21510;-50
2022/11/04 09:14:10;;;;;;;9.03;6.00;;;;;;;17.51;47.67;101895.75;1754360;81;21506;-50
2022/11/04 09:16:37;;;;;;;8.18;5.28;;;;;;;17.57;47.54;101893.37;1755403;80;21062;-51
2022/11/04 09:19:06;;;;;;;11.00;6.03;;;;;;;17.61;47.28;101893.22;1757415;80;21527;-51
2022/11/04 09:21:32;;;;;;;9.83;6.20;;;;;;;17.63;47.20;101888.77;1755533;81;21164;-51
2022/11/04 09:23:59;;;;;;;9.93;5.80;;;;;;;17.65;47.20;101888.27;1763163;80;21031;-53
2022/11/04 09:26:25;;;;;;;7.22;5.20;;;;;;;17.68;47.26;101886.83;1772166;80;21002;-50
2022/11/04 09:28:56;;;;;;;10.43;6.08;;;;;;;17.70;47.21;101881.05;1769053;80;21015;-50
2022/11/04 09:31:27;;;;;;;6.33;5.20;;;;;;;17.73;47.16;101881.42;1756298;80;21529;-51
2022/11/04 09:33:54;;;;;;;6.75;5.17;;;;;;;17.75;47.23;101874.33;1748725;80;21089;-51
2022/11/04 09:36:21;;;;;;;8.55;5.37;;;;;;;17.76;47.18;101874.27;1751240;80;21037;-50
2022/11/04 09:38:48;;;;;;;6.70;5.10;;;;;;;17.78;47.18;101872.44;1757178;80;21030;-50
2022/11/04 09:41:57;;;;;;;6.97;5.40;;;;;;;17.80;47.35;101869.78;1748123;80;21033;-51
2022/11/04 09:44:39;;;;;;;7.20;5.55;;;;;;;17.84;47.34;101866.12;1773931;80;21057;-51
2022/11/04 09:47:07;;;;;;;7.05;4.97;;;;;;;17.89;47.30;101867.69;1643868;86;21184;-51
2022/11/04 09:49:37;;;;;;;9.50;5.60;;;;;;;17.93;47.31;101862.33;1646796;86;21607;-50
2022/11/04 09:52:09;;;;;;;8.33;5.37;;;;;;;17.96;47.01;101854.30;1643651;86;21519;-50
2022/11/04 09:54:54;;;;;;;7.58;4.87;;;;;;;17.95;46.97;101851.28;1639502;86;21094;-50
2022/11/04 09:57:21;;;;;;;5.95;4.85;;;;;;;17.94;47.02;101850.86;1654148;86;21046;-51
2022/11/04 09:59:47;;;;;;;6.90;4.90;;;;;;;17.99;47.13;101848.95;1644485;87;21109;-50
2022/11/04 10:02:23;;;;;;;6.47;4.62;;;;;;;17.99;47.24;101843.68;1651436;86;21579;-52
2022/11/04 10:05:13;;;;;;;6.67;4.70;;;;;;;18.01;47.12;101837.90;1642775;86;21132;-50
2022/11/04 10:08:25;;;;;;;5.85;4.67;;;;;;;18.05;47.13;101829.84;1646922;86;21040;-50
2022/11/04 10:11:06;;;;;;;6.75;4.65;;;;;;;18.11;47.09;101828.75;1574584;89;21131;-49
2022/11/04 10:13:57;;;;;;;6.47;4.50;;;;;;;18.17;46.80;101824.58;1603179;89;21054;-50
2022/11/04 10:16:55;;;;;;;5.83;4.37;;;;;;;18.20;46.89;101816.55;1573223;90;21669;-51
2022/11/04 10:19:39;;;;;;;6.53;4.00;;;;;;;18.32;46.83;101815.64;1606266;88;21034;-49
2022/11/04 10:22:15;;;;;;;11.63;4.58;;;;;;;18.36;46.74;101817.73;1581213;89;21082;-51
2022/11/04 10:25:04;;;;;;;5.97;3.98;;;;;;;18.39;46.76;101807.06;1485256;95;21096;-50
2022/11/04 10:27:34;;;;;;;5.08;3.75;;;;;;;18.45;46.74;101806.86;1465455;96;21180;-49
2022/11/04 10:30:05;;;;;;;7.78;4.40;;;;;;;18.54;46.58;101801.26;1468328;96;21082;-50
2022/11/04 10:33:00;;;;;;;6.28;3.60;;;;;;;18.60;46.14;101804.98;1435785;98;21652;-50
2022/11/04 10:35:47;;;;;;;4.03;3.37;;;;;;;18.67;45.76;101799.84;1443175;98;21096;-50
2022/11/04 10:38:39;;;;;;;5.00;3.30;;;;;;;18.74;45.05;101793.44;1454374;98;21108;-51
2022/11/04 10:41:09;;;;;;;;;;;;;;;18.79;44.55;101794.12;1449957;98;21160;-50
2022/11/04 10:43:37;;;;;;;4.67;3.05;;;;;;;18.83;44.25;101790.45;1459542;95;20527;-50
2022/11/04 10:46:30;;;;;;;6.37;3.92;;;;;;;18.86;44.00;101787.67;1478725;95;21207;-50
2022/11/04 10:49:30;;;;;;;5.33;3.65;;;;;;;18.88;43.91;101783.20;1473890;96;21218;-50
2022/11/04 10:51:56;;;;;;;3.95;3.02;;;;;;;18.89;44.02;101781.43;1475948;95;21093;-50
2022/11/04 10:54:25;;;;;;;4.45;3.15;;;;;;;18.91;44.31;101781.77;1483663;95;21153;-50
2022/11/04 10:56:53;;;;;;;9.43;4.42;;;;;;;18.91;44.15;101772.55;1489964;94;21062;-50
2022/11/04 10:59:30;;;;;;;5.37;3.45;;;;;;;18.92;44.01;101784.80;1488170;96;21082;-51
2022/11/04 11:01:59;;;;;;;8.05;3.67;;;;;;;18.92;43.89;101784.80;1473280;96;21114;-50
2022/11/04 11:04:32;;;;;;;6.37;3.52;;;;;;;18.92;43.89;101787.91;1475018;95;21233;-50
2022/11/04 11:07:06;;;;;;;4.25;3.05;;;;;;;18.91;43.84;101781.77;1450093;98;21610;-50
2022/11/04 11:09:46;;;;;;;7.10;3.72;;;;;;;18.93;44.06;101775.97;1450561;97;21100;-50
2022/11/04 11:12:17;;;;;;;5.22;3.20;;;;;;;18.96;44.06;101780.28;1471357;96;21644;-50
2022/11/04 11:14:46;;;;;;;3.60;3.10;;;;;;;18.97;43.07;101776.25;1473726;95;21125;-51
2022/11/04 11:17:23;;;;;;;4.22;3.37;;;;;;;18.97;43.25;101772.30;1466139;96;21775;-50
2022/11/04 11:20:07;;;;;;;5.08;3.27;;;;;;;18.99;43.74;101770.45;1517690;94;21091;-51
2022/11/04 11:22:42;;;;;;;6.12;3.67;;;;;;;18.99;43.84;101767.81;1575337;89;21566;-51
2022/11/04 11:25:29;;;;;;;4.37;3.10;;;;;;;18.98;43.78;101767.40;1585413;89;21097;-50
2022/11/04 11:28:06;;;;;;;3.20;2.90;;;;;;;19.01;43.66;101771.25;1596540;88;21072;-51
2022/11/04 11:30:48;;;;;;;5.78;3.33;;;;;;;19.00;43.70;101770.84;1633411;85;21522;-51
2022/11/04 11:33:19;;;;;;;6.03;3.23;;;;;;;19.00;43.26;101764.23;1642069;86;21190;-51
2022/11/04 11:35:53;;;;;;;4.57;3.03;;;;;;;19.01;42.86;101762.47;1599836;87;21676;-51
2022/11/04 11:38:27;;;;;;;5.00;3.40;;;;;;;19.03;43.18;101761.49;1573000;89;21142;-51
2022/11/04 11:41:08;;;;;;;5.05;3.10;;;;;;;19.04;43.17;101759.23;1586769;89;21248;-51
2022/11/04 11:43:37;;;;;;;4.25;3.22;;;;;;;19.05;43.20;101753.05;1532980;92;21170;-49
2022/11/04 11:46:03;;;;;;;6.78;3.33;;;;;;;19.07;43.32;101756.48;1525672;92;21093;-50
2022/11/04 11:48:38;;;;;;;4.85;3.20;;;;;;;19.08;43.43;101756.03;1531170;92;21097;-51
2022/11/04 11:51:05;;;;;;;4.45;3.52;;;;;;;19.07;43.37;101755.17;1504276;94;21158;-50
2022/11/04 11:53:36;;;;;;;6.47;3.55;;;;;;;19.05;43.66;101754.38;1504047;94;21117;-50
2022/11/04 11:56:25;;;;;;;3.95;3.00;;;;;;;19.03;43.82;101750.94;1512232;92;21682;-50
2022/11/04 11:59:14;;;;;;;4.78;3.35;;;;;;;18.99;43.76;101746.72;1533076;92;21122;-50
2022/11/04 12:01:51;;;;;;;5.12;3.60;;;;;;;18.96;44.15;101744.67;1513419;93;21176;-50
2022/11/04 12:04:19;;;;;;;4.12;3.08;;;;;;;18.93;44.20;101746.97;1490393;95;21559;-51
2022/11/04 12:07:21;;;;;;;5.35;4.03;;;;;;;18.89;44.41;101742.73;1475894;95;21088;-50
2022/11/04 12:10:13;;;;;;;4.75;3.08;;;;;;;18.86;44.68;101737.57;1474262;96;21108;-50
2022/11/04 12:13:17;;;;;;;5.35;3.17;;;;;;;18.82;44.70;101735.98;1475331;96;21665;-51
2022/11/04 12:16:08;;;;;;;4.65;3.00;;;;;;;18.79;44.77;101733.48;1412800;100;21164;-50